Time;durP1;ratioP1;P1;durP2;ratioP2;P2;SDS_P1;SDS_P2;PMS_P1;PMS_P2;Temp;Humidity;BMP_temperature;BMP_pressure;BME280_temperature;BME280_humidity;BME280_pressure;Samples;Min_cycle;Max_cycle;Signal;HPM_P1;HPM_P2
2021/03/15 00:00:09;;;;;;;4.70;4.40;;;;;;;1.51;96.65;97613.69;4998880;28;20940;-69
2021/03/15 00:02:36;;;;;;;5.53;5.10;;;;;;;1.52;96.73;97627.59;4995161;28;20236;-69
2021/03/15 00:05:05;;;;;;;4.87;4.50;;;;;;;1.50;97.10;97621.66;4998972;28;20635;-69
2021/03/15 00:07:32;;;;;;;6.63;6.03;;;;;;;1.54;97.12;97617.88;4999404;28;20205;-69
2021/03/15 00:09:59;;;;;;;4.23;3.93;;;;;;;1.54;96.11;97615.25;4999475;28;20212;-69
2021/03/15 00:12:26;;;;;;;5.17;4.80;;;;;;;1.57;96.82;97618.47;4995720;28;20204;-69
2021/03/15 00:14:54;;;;;;;10.57;4.87;;;;;;;1.68;96.52;97615.03;4999959;28;20228;-69
2021/03/15 00:17:21;;;;;;;4.73;4.33;;;;;;;1.55;96.26;97619.53;4997130;28;20216;-69
2021/03/15 00:19:49;;;;;;;4.80;4.40;;;;;;;1.65;95.46;97614.44;4999618;28;20368;-69
2021/03/15 00:22:15;;;;;;;4.50;4.00;;;;;;;1.59;95.47;97611.38;4998278;28;20221;-68
2021/03/15 00:24:42;;;;;;;4.37;3.90;;;;;;;1.64;94.57;97618.00;4995050;28;20214;-69
2021/03/15 00:27:09;;;;;;;6.37;4.53;;;;;;;1.67;94.52;97617.78;4986578;28;20213;-69
2021/03/15 00:29:36;;;;;;;3.43;3.20;;;;;;;1.70;94.13;97607.91;4988398;28;20697;-69
2021/03/15 00:32:04;;;;;;;4.90;4.33;;;;;;;1.70;94.12;97605.28;4990098;28;20205;-69
2021/03/15 00:34:33;;;;;;;4.93;4.43;;;;;;;1.66;93.57;97616.94;5000126;28;20677;-68
2021/03/15 00:37:00;;;;;;;3.40;3.20;;;;;;;1.69;93.44;97608.84;4998930;28;20231;-68
2021/03/15 00:39:27;;;;;;;4.67;4.27;;;;;;;1.67;93.85;97607.31;4997778;28;20209;-70
2021/03/15 00:41:55;;;;;;;4.67;4.07;;;;;;;1.72;93.23;97602.56;4995629;28;20229;-69
2021/03/15 00:44:22;;;;;;;4.07;3.67;;;;;;;1.71;93.48;97608.75;5002003;28;20224;-68
2021/03/15 00:46:49;;;;;;;3.83;3.37;;;;;;;1.81;92.83;97609.69;4996496;28;20682;-69
2021/03/15 00:49:16;;;;;;;4.87;4.23;;;;;;;1.82;92.58;97613.16;4988944;28;20702;-69
2021/03/15 00:51:44;;;;;;;4.30;4.00;;;;;;;1.71;93.52;97619.19;4987644;28;20220;-69
2021/03/15 00:54:11;;;;;;;4.77;4.33;;;;;;;1.69;94.47;97615.88;4993736;28;20610;-68
2021/03/15 00:56:38;;;;;;;5.53;3.90;;;;;;;1.71;94.15;97607.00;4998861;28;20205;-70
2021/03/15 00:59:05;;;;;;;4.17;3.97;;;;;;;1.76;94.78;97611.03;4991148;28;20208;-69
2021/03/15 01:01:36;;;;;;;5.03;4.63;;;;;;;1.83;94.26;97610.41;4990897;28;21085;-68
2021/03/15 01:04:04;;;;;;;5.17;4.40;;;;;;;1.72;94.55;97602.56;4998877;28;20699;-68
2021/03/15 01:06:40;;;;;;;4.97;4.53;;;;;;;1.69;95.27;97597.59;4998172;28;20211;-70
2021/03/15 01:09:08;;;;;;;5.57;5.10;;;;;;;1.68;95.50;97594.13;5001099;28;20213;-70
2021/03/15 01:11:35;;;;;;;4.93;4.53;;;;;;;1.63;96.28;97596.28;4997066;28;20205;-68
2021/03/15 01:14:02;;;;;;;8.07;5.80;;;;;;;1.66;95.80;97598.66;4996754;28;20240;-69
2021/03/15 01:16:29;;;;;;;6.10;5.53;;;;;;;1.65;96.46;97588.31;4995699;28;20513;-69
2021/03/15 01:18:56;;;;;;;7.47;6.87;;;;;;;1.63;96.43;97593.66;4990639;28;20205;-69
2021/03/15 01:21:23;;;;;;;7.50;6.80;;;;;;;1.65;97.42;97583.09;5000776;28;20220;-69
2021/03/15 01:23:51;;;;;;;7.00;6.40;;;;;;;1.58;96.98;97580.97;4995793;28;20236;-69
2021/03/15 01:26:19;;;;;;;6.97;6.37;;;;;;;1.57;97.66;97589.75;4994381;28;20204;-69
2021/03/15 01:28:45;;;;;;;8.23;6.63;;;;;;;1.51;98.19;97587.59;4995057;28;20235;-68
2021/03/15 01:31:12;;;;;;;7.27;6.67;;;;;;;1.46;98.17;97586.28;4998139;28;20211;-68
2021/03/15 01:33:40;;;;;;;7.87;7.03;;;;;;;1.42;98.92;97586.53;5001338;28;20229;-68
2021/03/15 01:36:07;;;;;;;7.53;6.93;;;;;;;1.37;99.09;97587.81;4997976;28;20226;-69
2021/03/15 01:38:34;;;;;;;9.23;7.17;;;;;;;1.28;99.84;97586.72;4995599;28;20376;-68
2021/03/15 01:41:02;;;;;;;8.67;7.77;;;;;;;1.28;99.54;97584.09;4998082;28;20219;-68
2021/03/15 01:43:30;;;;;;;7.00;6.40;;;;;;;1.21;100.00;97575.06;4998568;28;20228;-68
2021/03/15 01:45:56;;;;;;;8.37;7.63;;;;;;;1.16;100.00;97572.81;4996439;28;20268;-69
2021/03/15 01:48:23;;;;;;;9.40;7.40;;;;;;;1.22;100.00;97567.16;4998124;28;20208;-69
2021/03/15 01:50:51;;;;;;;9.17;8.20;;;;;;;1.08;100.00;97569.94;4998890;28;20205;-67
2021/03/15 01:53:19;;;;;;;8.47;7.73;;;;;;;1.15;100.00;97564.16;4996860;28;20772;-68
2021/03/15 01:55:47;;;;;;;9.70;8.90;;;;;;;1.08;100.00;97555.13;4996972;28;20220;-68
2021/03/15 01:58:14;;;;;;;10.87;8.73;;;;;;;0.97;100.00;97562.94;4997573;28;20201;-69
2021/03/15 02:00:44;;;;;;;9.57;8.50;;;;;;;0.98;100.00;97562.00;5001115;28;20210;-68
2021/03/15 02:03:11;;;;;;;8.50;7.80;;;;;;;1.01;100.00;97553.94;4996688;28;20236;-67
2021/03/15 02:05:41;;;;;;;9.43;8.63;;;;;;;1.01;100.00;97543.50;4992968;28;20291;-68
2021/03/15 02:08:09;;;;;;;9.40;8.50;;;;;;;0.99;100.00;97556.63;5001598;28;20268;-68
2021/03/15 02:10:37;;;;;;;9.40;8.60;;;;;;;0.96;100.00;97556.06;5000495;28;20206;-68
2021/03/15 02:13:38;;;;;;;8.90;8.10;;;;;;;1.05;100.00;97544.06;4998621;28;20244;-68
2021/03/15 02:16:10;;;;;;;9.57;8.77;;;;;;;0.97;100.00;97552.50;4997148;28;20594;-68
2021/03/15 02:18:54;;;;;;;10.23;9.13;;;;;;;0.93;100.00;97545.81;4998799;28;20209;-68
2021/03/15 02:22:01;;;;;;;10.97;9.00;;;;;;;1.06;100.00;97536.13;5000150;28;20224;-68
2021/03/15 02:24:34;;;;;;;9.63;8.63;;;;;;;1.11;100.00;97541.00;4991585;28;20387;-69
2021/03/15 02:27:20;;;;;;;9.10;8.30;;;;;;;1.19;100.00;97535.19;4996031;28;20200;-69
2021/03/15 02:30:28;;;;;;;9.93;9.03;;;;;;;1.20;100.00;97532.50;5003480;28;20215;-70
2021/03/15 02:33:25;;;;;;;9.33;8.43;;;;;;;1.18;100.00;97516.13;4988596;28;20220;-67
2021/03/15 02:35:55;;;;;;;9.73;8.87;;;;;;;1.21;100.00;97523.72;4997485;28;20220;-68
2021/03/15 02:38:23;;;;;;;10.87;8.63;;;;;;;1.35;100.00;97525.28;5002350;28;20695;-68
2021/03/15 02:40:55;;;;;;;9.10;8.30;;;;;;;1.34;100.00;97523.63;5005029;28;20211;-69
2021/03/15 02:43:24;;;;;;;9.40;8.60;;;;;;;1.42;100.00;97521.25;4988794;28;20220;-69
2021/03/15 02:45:54;;;;;;;10.97;8.30;;;;;;;1.40;100.00;97517.91;4990963;28;20202;-68
2021/03/15 02:48:22;;;;;;;9.60;7.90;;;;;;;1.39;100.00;97520.63;4997043;28;20204;-68
2021/03/15 02:50:50;;;;;;;8.17;7.50;;;;;;;1.41;100.00;97519.59;4999514;28;20209;-68
2021/03/15 02:53:18;;;;;;;8.70;7.80;;;;;;;1.39;100.00;97513.66;5000566;28;20232;-68
2021/03/15 02:55:48;;;;;;;8.23;7.43;;;;;;;1.36;100.00;97513.03;4998941;28;20213;-69
2021/03/15 02:58:15;;;;;;;7.90;7.30;;;;;;;1.44;100.00;97513.28;5000558;28;20235;-68
2021/03/15 03:00:43;;;;;;;8.43;7.10;;;;;;;1.54;99.79;97513.41;5000773;28;20472;-68
2021/03/15 03:03:11;;;;;;;8.63;7.83;;;;;;;1.48;99.95;97517.31;5002475;28;20226;-67
2021/03/15 03:05:39;;;;;;;8.57;7.67;;;;;;;1.57;99.46;97521.00;4999317;28;20239;-68
2021/03/15 03:08:17;;;;;;;9.03;7.03;;;;;;;1.60;99.41;97523.38;5001343;28;20202;-68
2021/03/15 03:10:44;;;;;;;7.20;6.50;;;;;;;1.65;99.33;97516.00;5000351;28;20209;-68
2021/03/15 03:13:11;;;;;;;7.80;7.10;;;;;;;1.61;99.41;97517.19;5005260;28;20239;-69
2021/03/15 03:15:39;;;;;;;7.70;7.00;;;;;;;1.67;99.29;97511.50;5001112;28;20220;-68
2021/03/15 03:18:06;;;;;;;7.30;6.70;;;;;;;1.76;98.40;97509.13;5002172;28;20597;-68
2021/03/15 03:20:34;;;;;;;7.20;6.57;;;;;;;1.70;98.79;97510.44;4993552;28;20206;-69
2021/03/15 03:23:03;;;;;;;7.60;6.90;;;;;;;1.75;98.34;97510.09;4997502;28;20238;-68
2021/03/15 03:25:33;;;;;;;7.97;7.30;;;;;;;1.81;97.92;97513.03;4999923;28;20205;-67
2021/03/15 03:28:00;;;;;;;8.53;7.67;;;;;;;1.88;97.97;97510.78;4996306;28;20360;-67
2021/03/15 03:30:29;;;;;;;7.47;6.77;;;;;;;1.84;99.00;97507.56;4999438;28;20204;-69
2021/03/15 03:32:58;;;;;;;7.83;7.00;;;;;;;1.81;100.00;97504.38;5002132;28;20225;-68
2021/03/15 03:35:25;;;;;;;7.93;7.13;;;;;;;1.78;100.00;97499.38;4998287;28;20732;-68
2021/03/15 03:37:52;;;;;;;10.60;7.67;;;;;;;1.65;100.00;97497.72;5001977;28;20204;-67
2021/03/15 03:40:19;;;;;;;8.50;7.70;;;;;;;1.68;100.00;97500.09;5005690;28;20205;-69
2021/03/15 03:42:47;;;;;;;7.90;7.20;;;;;;;1.63;100.00;97490.97;4991038;28;20226;-68
2021/03/15 03:45:15;;;;;;;7.50;6.80;;;;;;;1.57;100.00;97487.03;4998373;28;20205;-68
2021/03/15 03:47:42;;;;;;;12.33;8.30;;;;;;;1.55;100.00;97488.94;5001287;28;20313;-68
2021/03/15 03:50:13;;;;;;;9.63;7.30;;;;;;;1.59;100.00;97485.13;4998163;28;20229;-67
2021/03/15 03:52:45;;;;;;;8.23;7.13;;;;;;;1.59;100.00;97488.59;5002548;28;20232;-68
2021/03/15 03:55:16;;;;;;;8.03;7.33;;;;;;;1.57;100.00;97479.22;5006872;28;20205;-69
2021/03/15 03:57:45;;;;;;;8.97;7.63;;;;;;;1.52;100.00;97479.59;4998659;28;20208;-68
2021/03/15 04:00:15;;;;;;;8.23;7.50;;;;;;;1.59;100.00;97480.75;5004030;28;20581;-67
2021/03/15 04:02:45;;;;;;;7.77;7.13;;;;;;;1.67;100.00;97480.13;4993669;28;20239;-68
2021/03/15 04:05:15;;;;;;;8.67;7.87;;;;;;;1.68;100.00;97478.38;4984051;28;20522;-68
2021/03/15 04:07:45;;;;;;;7.83;6.87;;;;;;;1.68;100.00;97468.75;5003250;28;20209;-69
2021/03/15 04:10:13;;;;;;;11.03;7.90;;;;;;;1.69;100.00;97475.63;4999284;28;20617;-67
2021/03/15 04:12:45;;;;;;;8.57;7.83;;;;;;;1.76;100.00;97480.38;5002861;28;20233;-68
2021/03/15 04:15:16;;;;;;;8.27;7.47;;;;;;;1.77;100.00;97482.06;5004864;28;20194;-68
2021/03/15 04:17:43;;;;;;;7.87;7.27;;;;;;;1.71;100.00;97472.91;4996620;28;20216;-68
2021/03/15 04:20:16;;;;;;;8.20;7.50;;;;;;;1.83;100.00;97474.53;5003407;28;20363;-68
2021/03/15 04:22:47;;;;;;;7.83;7.13;;;;;;;1.78;100.00;97473.25;4996559;28;20233;-68
2021/03/15 04:25:15;;;;;;;8.53;6.73;;;;;;;1.81;100.00;97478.25;4998259;28;20704;-68
2021/03/15 04:27:42;;;;;;;7.97;7.00;;;;;;;1.83;100.00;97471.94;4998952;28;20552;-68
2021/03/15 04:30:11;;;;;;;7.83;7.10;;;;;;;1.85;100.00;97475.25;4999471;28;20213;-67
2021/03/15 04:32:40;;;;;;;9.17;7.53;;;;;;;1.87;100.00;97473.34;5002815;28;21013;-68
2021/03/15 04:35:09;;;;;;;8.07;7.30;;;;;;;1.88;100.00;97474.19;4999667;28;20276;-68
2021/03/15 04:37:36;;;;;;;10.30;7.00;;;;;;;1.99;100.00;97462.88;4993767;28;20212;-69
2021/03/15 04:40:05;;;;;;;7.93;7.13;;;;;;;2.00;100.00;97467.97;4987905;28;20201;-68
2021/03/15 04:42:32;;;;;;;7.57;6.90;;;;;;;1.93;100.00;97464.19;4986902;28;20504;-69
2021/03/15 04:44:59;;;;;;;8.00;6.80;;;;;;;1.95;100.00;97459.66;4987896;28;20206;-67
2021/03/15 04:47:26;;;;;;;7.47;6.80;;;;;;;1.97;100.00;97455.16;4997546;28;20571;-69
2021/03/15 04:49:55;;;;;;;7.17;6.67;;;;;;;1.91;100.00;97453.03;4999430;28;20214;-69
2021/03/15 04:52:23;;;;;;;7.13;6.53;;;;;;;1.94;100.00;97446.75;4999373;28;20227;-68
2021/03/15 04:54:50;;;;;;;7.77;7.10;;;;;;;1.95;100.00;97437.94;4994988;28;20217;-68
2021/03/15 04:57:17;;;;;;;8.07;7.27;;;;;;;1.89;100.00;97434.03;4991932;28;20211;-67
2021/03/15 04:59:45;;;;;;;7.67;7.13;;;;;;;1.96;100.00;97435.19;4983362;28;20249;-67
2021/03/15 05:02:14;;;;;;;7.70;6.83;;;;;;;1.90;100.00;97434.88;4988858;28;20228;-67
2021/03/15 05:04:42;;;;;;;10.47;7.33;;;;;;;1.88;100.00;97435.00;5002305;28;20222;-67
2021/03/15 05:07:11;;;;;;;7.90;7.10;;;;;;;1.86;100.00;97429.06;5003763;28;20210;-67
2021/03/15 05:09:51;;;;;;;7.93;6.20;;;;;;;1.80;100.00;97427.75;4994824;28;20213;-68
2021/03/15 05:12:19;;;;;;;7.83;7.13;;;;;;;1.77;100.00;97435.03;4998342;28;20208;-68
2021/03/15 05:14:46;;;;;;;7.60;6.60;;;;;;;1.77;100.00;97437.63;5001706;28;20206;-67
2021/03/15 05:17:13;;;;;;;6.57;6.17;;;;;;;1.81;100.00;97426.81;4996120;28;20206;-67
2021/03/15 05:19:41;;;;;;;6.80;6.30;;;;;;;1.85;100.00;97424.78;4999370;28;20208;-69
2021/03/15 05:22:08;;;;;;;8.87;6.70;;;;;;;1.80;100.00;97419.09;4999239;28;20240;-68
2021/03/15 05:24:37;;;;;;;7.27;6.63;;;;;;;1.84;100.00;97421.31;4995180;28;20236;-68
2021/03/15 05:27:04;;;;;;;7.03;6.43;;;;;;;1.85;100.00;97422.97;5000456;28;20695;-69
2021/03/15 05:29:33;;;;;;;7.30;6.63;;;;;;;1.84;100.00;97426.56;4998271;28;20204;-68
2021/03/15 05:32:02;;;;;;;6.90;6.40;;;;;;;1.84;100.00;97417.91;4999260;28;20205;-67
2021/03/15 05:34:31;;;;;;;7.43;6.67;;;;;;;1.86;100.00;97422.03;5000079;28;20290;-67
2021/03/15 05:36:59;;;;;;;7.03;6.43;;;;;;;1.97;100.00;97423.78;4996698;28;20228;-69
2021/03/15 05:39:26;;;;;;;6.57;6.03;;;;;;;1.92;100.00;97410.28;4998623;28;20201;-69
2021/03/15 05:42:05;;;;;;;7.40;6.70;;;;;;;1.99;100.00;97415.84;4995017;28;20633;-70
2021/03/15 05:44:58;;;;;;;6.77;6.03;;;;;;;1.98;100.00;97422.03;4996088;28;20317;-68
2021/03/15 05:47:54;;;;;;;6.77;6.23;;;;;;;2.13;96.85;97414.72;4996277;28;20205;-69
2021/03/15 05:50:36;;;;;;;7.87;5.47;;;;;;;2.17;96.38;97409.09;4994659;28;20706;-69
2021/03/15 05:53:14;;;;;;;6.53;5.87;;;;;;;2.17;96.10;97416.94;5002831;28;20232;-69
2021/03/15 05:56:04;;;;;;;6.00;5.50;;;;;;;2.35;95.40;97405.09;4996599;28;20208;-69
2021/03/15 05:59:10;;;;;;;10.10;5.80;;;;;;;2.32;94.97;97393.13;4990208;28;20202;-69
2021/03/15 06:01:49;;;;;;;7.00;5.57;;;;;;;2.33;94.85;97393.94;4989948;28;20214;-69
2021/03/15 06:04:47;;;;;;;6.67;5.13;;;;;;;2.29;95.64;97394.19;4983716;28;20555;-69
2021/03/15 06:07:15;;;;;;;7.47;5.40;;;;;;;2.36;95.96;97381.44;4996796;28;20210;-69
2021/03/15 06:09:50;;;;;;;7.17;5.50;;;;;;;2.46;94.88;97392.81;4997037;28;20232;-69
2021/03/15 06:12:23;;;;;;;6.50;6.00;;;;;;;2.52;95.17;97381.00;4995593;28;20700;-69
2021/03/15 06:14:52;;;;;;;6.67;6.00;;;;;;;2.56;94.43;97378.94;4984741;28;20212;-69
2021/03/15 06:17:20;;;;;;;5.80;5.40;;;;;;;2.56;94.91;97384.19;4986454;28;20209;-70
2021/03/15 06:19:48;;;;;;;8.97;5.63;;;;;;;2.62;94.26;97388.91;4988967;28;20209;-69
2021/03/15 06:22:16;;;;;;;7.53;5.73;;;;;;;2.71;93.38;97387.31;4997191;28;20312;-69
2021/03/15 06:24:43;;;;;;;5.77;5.23;;;;;;;2.62;93.62;97380.22;4995422;28;20231;-69
2021/03/15 06:27:10;;;;;;;5.87;5.47;;;;;;;2.58;93.75;97380.50;4999801;28;20700;-69
2021/03/15 06:29:37;;;;;;;5.67;5.17;;;;;;;2.70;94.38;97372.56;4995422;28;20209;-69
2021/03/15 06:32:05;;;;;;;5.03;4.53;;;;;;;2.90;93.59;97363.00;4987883;28;20217;-69
2021/03/15 06:34:33;;;;;;;8.17;5.40;;;;;;;2.96;93.76;97364.28;4986410;28;20236;-68
2021/03/15 06:37:01;;;;;;;6.07;4.80;;;;;;;2.97;93.31;97364.16;4984867;28;20209;-69
2021/03/15 06:39:33;;;;;;;7.03;5.43;;;;;;;3.08;92.73;97365.03;4984595;28;20312;-69
2021/03/15 06:42:00;;;;;;;5.63;4.97;;;;;;;3.11;91.37;97359.53;4985370;28;20229;-68
2021/03/15 06:44:27;;;;;;;5.50;5.00;;;;;;;3.10;91.42;97363.09;5001731;28;20224;-69
2021/03/15 06:46:54;;;;;;;6.50;5.83;;;;;;;3.10;91.70;97360.50;5000182;28;20219;-69
2021/03/15 06:49:22;;;;;;;6.10;5.40;;;;;;;3.10;92.83;97363.91;4999106;28;20444;-69
2021/03/15 06:52:01;;;;;;;7.70;5.70;;;;;;;3.19;91.64;97364.94;4998557;28;20350;-69
2021/03/15 06:54:28;;;;;;;6.17;5.67;;;;;;;3.12;91.95;97369.03;5000776;28;20239;-69
2021/03/15 06:57:15;;;;;;;12.33;9.70;;;;;;;3.17;92.48;97361.63;4996867;28;20205;-70
2021/03/15 06:59:47;;;;;;;7.10;5.30;;;;;;;3.10;92.90;97366.53;4992915;28;20241;-69
2021/03/15 07:02:22;;;;;;;7.13;5.57;;;;;;;3.39;92.17;97363.19;4998363;28;20224;-70
2021/03/15 07:04:50;;;;;;;6.10;5.33;;;;;;;3.30;92.14;97367.44;4995661;28;20220;-69
2021/03/15 07:07:25;;;;;;;6.33;5.00;;;;;;;3.31;92.34;97360.41;4998681;28;20205;-69
2021/03/15 07:09:55;;;;;;;7.00;6.40;;;;;;;3.26;93.56;97358.19;4991059;28;20700;-69
2021/03/15 07:12:24;;;;;;;5.00;4.60;;;;;;;3.18;92.39;97364.09;5000715;28;20596;-69
2021/03/15 07:14:52;;;;;;;4.97;4.57;;;;;;;2.98;93.01;97355.31;4991810;28;20224;-69
2021/03/15 07:17:21;;;;;;;4.70;4.23;;;;;;;2.86;94.76;97356.38;4982681;28;20204;-68
2021/03/15 07:19:49;;;;;;;5.47;5.00;;;;;;;2.87;96.00;97358.03;4982902;28;20209;-69
2021/03/15 07:22:20;;;;;;;9.40;4.73;;;;;;;2.73;95.74;97367.91;4998537;28;20233;-69
2021/03/15 07:25:06;;;;;;;5.20;4.67;;;;;;;2.77;97.58;97360.59;4990357;28;20751;-69
2021/03/15 07:27:34;;;;;;;6.83;4.43;;;;;;;2.70;98.68;97356.88;4997216;28;20617;-68
2021/03/15 07:30:29;;;;;;;6.13;5.53;;;;;;;2.82;99.95;97360.22;5000669;28;20220;-69
2021/03/15 07:32:59;;;;;;;6.13;5.53;;;;;;;2.98;100.00;97351.91;4990898;28;20743;-68
2021/03/15 07:35:27;;;;;;;5.37;4.93;;;;;;;2.61;98.12;97358.47;4994434;28;20205;-69
2021/03/15 07:37:54;;;;;;;6.90;5.20;;;;;;;2.79;100.00;97343.00;4992688;28;20213;-69
2021/03/15 07:40:32;;;;;;;6.57;5.93;;;;;;;2.74;100.00;97353.03;4986607;28;20506;-69
2021/03/15 07:43:00;;;;;;;5.37;4.90;;;;;;;2.85;100.00;97342.50;4994341;28;20563;-69
2021/03/15 07:45:32;;;;;;;6.30;5.60;;;;;;;3.06;100.00;97338.97;4994816;28;20211;-69
2021/03/15 07:48:07;;;;;;;8.27;7.20;;;;;;;2.96;100.00;97338.94;5000204;28;20209;-69
2021/03/15 07:50:34;;;;;;;5.33;4.67;;;;;;;2.79;99.65;97337.75;4998582;28;20216;-69
2021/03/15 07:53:02;;;;;;;6.77;5.30;;;;;;;2.52;99.13;97349.63;4999393;28;20322;-69
2021/03/15 07:55:37;;;;;;;6.23;5.33;;;;;;;2.45;100.00;97344.06;4998441;28;20204;-68
2021/03/15 07:58:26;;;;;;;6.03;5.37;;;;;;;2.77;100.00;97344.09;4996329;28;20212;-68
2021/03/15 08:00:54;;;;;;;5.57;5.03;;;;;;;2.83;100.00;97339.16;4999966;28;20209;-69
2021/03/15 08:03:22;;;;;;;5.77;5.30;;;;;;;2.93;100.00;97344.44;4994722;28;20237;-69
2021/03/15 08:05:50;;;;;;;4.97;4.33;;;;;;;2.94;100.00;97345.28;5000920;28;20205;-69
2021/03/15 08:08:17;;;;;;;4.30;3.90;;;;;;;3.00;100.00;97342.13;5000634;28;20201;-69
2021/03/15 08:10:45;;;;;;;6.27;3.97;;;;;;;3.11;100.00;97347.25;4991447;28;20206;-69
2021/03/15 08:13:15;;;;;;;3.90;3.60;;;;;;;2.69;99.90;97352.59;5005419;28;20229;-69
2021/03/15 08:15:43;;;;;;;4.27;3.30;;;;;;;2.85;100.00;97339.88;5001849;28;20209;-69
2021/03/15 08:18:11;;;;;;;3.83;3.30;;;;;;;2.83;99.87;97354.84;4999469;28;20213;-70
2021/03/15 08:20:43;;;;;;;5.23;4.77;;;;;;;2.94;100.00;97345.28;4998731;28;20233;-69
2021/03/15 08:23:13;;;;;;;2.90;2.70;;;;;;;2.80;100.00;97335.97;5000860;28;20230;-68
2021/03/15 08:25:43;;;;;;;3.03;2.67;;;;;;;2.79;100.00;97336.94;4989946;28;20214;-69
2021/03/15 08:28:13;;;;;;;2.80;2.60;;;;;;;2.81;100.00;97335.03;5000234;28;20236;-69
2021/03/15 08:30:44;;;;;;;3.63;2.70;;;;;;;2.66;100.00;97334.53;4997030;28;20209;-69
2021/03/15 08:33:13;;;;;;;2.87;2.67;;;;;;;2.79;100.00;97327.28;4985778;28;20720;-68
2021/03/15 08:35:42;;;;;;;2.90;2.70;;;;;;;3.01;100.00;97328.88;4995684;28;20894;-69
2021/03/15 08:38:09;;;;;;;3.93;2.60;;;;;;;3.12;99.42;97327.97;5004119;28;20213;-69
2021/03/15 08:40:55;;;;;;;2.77;2.50;;;;;;;2.77;99.84;97325.78;4995126;28;20201;-69
2021/03/15 08:43:31;;;;;;;3.13;2.90;;;;;;;2.85;100.00;97318.94;5003767;28;20228;-70
2021/03/15 08:46:00;;;;;;;3.43;2.87;;;;;;;2.95;100.00;97318.13;4994343;28;20231;-70
2021/03/15 08:48:49;;;;;;;2.90;2.60;;;;;;;2.98;100.00;97318.69;4993856;28;20693;-70
2021/03/15 08:51:37;;;;;;;3.17;2.93;;;;;;;3.01;100.00;97318.41;5003897;28;20575;-70
2021/03/15 08:54:06;;;;;;;6.33;3.37;;;;;;;2.94;100.00;97308.63;4994121;28;20224;-68
2021/03/15 08:56:40;;;;;;;3.13;2.93;;;;;;;2.89;100.00;97309.00;4999060;28;20707;-69
2021/03/15 08:59:14;;;;;;;4.13;2.97;;;;;;;2.64;100.00;97303.25;4997551;28;20285;-69
2021/03/15 09:01:49;;;;;;;3.03;2.80;;;;;;;2.75;100.00;97304.97;4991333;28;20260;-69
2021/03/15 09:04:31;;;;;;;3.37;3.17;;;;;;;3.03;100.00;97298.19;5004969;28;20670;-69
2021/03/15 09:06:58;;;;;;;3.87;3.10;;;;;;;3.16;100.00;97292.69;4996281;28;20709;-69
2021/03/15 09:09:26;;;;;;;3.10;2.90;;;;;;;3.15;100.00;97288.41;5002110;28;20223;-69
2021/03/15 09:11:54;;;;;;;4.80;2.87;;;;;;;3.04;100.00;97291.16;4992657;28;20216;-68
2021/03/15 09:14:34;;;;;;;2.93;2.67;;;;;;;2.97;100.00;97288.22;5002641;28;20227;-69
2021/03/15 09:17:32;;;;;;;3.57;3.30;;;;;;;3.16;100.00;97286.63;4986098;28;20209;-69
2021/03/15 09:20:19;;;;;;;3.70;3.37;;;;;;;3.16;100.00;97271.75;4990022;28;20213;-67
2021/03/15 09:22:46;;;;;;;4.17;3.53;;;;;;;3.15;100.00;97285.81;4998614;28;20645;-69
2021/03/15 09:25:23;;;;;;;3.90;3.40;;;;;;;3.24;100.00;97286.78;4994214;28;20213;-69
2021/03/15 09:27:51;;;;;;;3.70;3.50;;;;;;;3.39;100.00;97273.28;4992237;28;20597;-68
2021/03/15 09:30:22;;;;;;;5.20;4.70;;;;;;;3.32;100.00;97281.69;5002659;28;20215;-69
2021/03/15 09:32:50;;;;;;;3.70;3.50;;;;;;;3.32;100.00;97280.88;4997302;28;20603;-70
2021/03/15 09:35:36;;;;;;;4.07;3.63;;;;;;;3.25;100.00;97279.78;5000884;28;20196;-69
2021/03/15 09:38:05;;;;;;;3.87;3.57;;;;;;;3.21;100.00;97276.59;4986128;28;20217;-68
2021/03/15 09:40:34;;;;;;;3.90;3.60;;;;;;;3.16;100.00;97270.94;4984480;28;20206;-69
2021/03/15 09:43:10;;;;;;;4.00;3.80;;;;;;;3.15;100.00;97269.28;5001488;28;20235;-69
2021/03/15 09:45:40;;;;;;;3.93;3.63;;;;;;;3.29;100.00;97260.22;4985902;28;20218;-68
2021/03/15 09:48:17;;;;;;;6.03;4.03;;;;;;;3.08;100.00;97268.16;5002682;28;20205;-69
2021/03/15 09:50:46;;;;;;;3.73;3.53;;;;;;;3.11;100.00;97271.31;4995370;28;20209;-69
2021/03/15 09:53:15;;;;;;;4.70;4.40;;;;;;;3.18;100.00;97267.19;5000860;28;20237;-69
2021/03/15 09:55:42;;;;;;;4.03;3.73;;;;;;;2.87;100.00;97274.28;5003706;28;20205;-69
2021/03/15 09:58:10;;;;;;;3.67;3.47;;;;;;;2.76;100.00;97277.84;4994604;28;20267;-68
2021/03/15 10:00:38;;;;;;;4.20;3.87;;;;;;;2.97;100.00;97271.72;4994946;28;20213;-69
2021/03/15 10:03:06;;;;;;;3.60;3.40;;;;;;;2.69;100.00;97274.94;4998458;28;20796;-69
2021/03/15 10:05:33;;;;;;;4.10;3.70;;;;;;;2.97;100.00;97269.91;4998168;28;20218;-69
2021/03/15 10:08:00;;;;;;;4.03;3.73;;;;;;;3.03;100.00;97274.63;4996054;28;20208;-69
2021/03/15 10:10:27;;;;;;;3.47;3.27;;;;;;;2.99;100.00;97280.25;5000177;28;20687;-69
2021/03/15 10:13:01;;;;;;;3.27;2.83;;;;;;;3.15;100.00;97274.50;4998157;28;20232;-69
2021/03/15 10:15:28;;;;;;;3.27;3.07;;;;;;;3.02;100.00;97277.38;4991200;28;20203;-69
2021/03/15 10:17:57;;;;;;;3.43;2.70;;;;;;;3.16;100.00;97278.78;4996444;28;20210;-69
2021/03/15 10:20:36;;;;;;;3.27;3.07;;;;;;;3.19;100.00;97278.50;4989134;28;20288;-69
2021/03/15 10:23:10;;;;;;;3.10;2.90;;;;;;;2.97;100.00;97276.94;4984292;28;20324;-69
2021/03/15 10:25:37;;;;;;;4.50;3.33;;;;;;;2.98;100.00;97273.38;4994893;28;20214;-69
2021/03/15 10:28:05;;;;;;;3.43;3.13;;;;;;;3.03;100.00;97279.88;4997995;28;20208;-68
2021/03/15 10:30:33;;;;;;;2.93;2.83;;;;;;;3.07;100.00;97287.47;5001802;28;20209;-69
2021/03/15 10:33:02;;;;;;;3.03;2.83;;;;;;;2.89;100.00;97278.44;4986460;28;20229;-68
2021/03/15 10:35:31;;;;;;;2.70;2.50;;;;;;;3.01;100.00;97268.69;5001854;28;20212;-69
2021/03/15 10:38:00;;;;;;;2.43;2.33;;;;;;;3.04;100.00;97272.81;4997405;28;20213;-69
2021/03/15 10:40:28;;;;;;;2.07;1.97;;;;;;;2.81;100.00;97270.41;4988276;28;20632;-68
2021/03/15 10:43:02;;;;;;;3.53;2.37;;;;;;;2.99;100.00;97273.22;4987526;28;20276;-70
2021/03/15 10:45:29;;;;;;;2.37;2.17;;;;;;;3.16;100.00;97282.22;4983176;28;21943;-70
2021/03/15 10:48:00;;;;;;;3.67;3.47;;;;;;;3.09;100.00;97281.09;4993321;28;20212;-69
2021/03/15 10:50:30;;;;;;;2.60;2.40;;;;;;;3.19;100.00;97284.56;4997532;28;20221;-69
2021/03/15 10:52:58;;;;;;;1.93;1.83;;;;;;;3.26;100.00;97276.19;5000342;28;20676;-69
2021/03/15 10:55:31;;;;;;;1.60;1.60;;;;;;;3.16;100.00;97278.78;4997822;28;20201;-67
2021/03/15 10:58:00;;;;;;;1.90;1.90;;;;;;;3.07;100.00;97277.78;5000974;28;20207;-69
2021/03/15 11:00:29;;;;;;;1.90;1.80;;;;;;;3.00;100.00;97282.72;5000512;28;20204;-69
2021/03/15 11:02:57;;;;;;;1.60;1.60;;;;;;;2.81;100.00;97286.13;5003448;28;20228;-69
2021/03/15 11:05:25;;;;;;;2.00;1.90;;;;;;;2.96;100.00;97288.38;5001190;28;20654;-68
2021/03/15 11:07:53;;;;;;;1.50;1.50;;;;;;;2.98;100.00;97281.22;5002678;28;20201;-69
2021/03/15 11:10:21;;;;;;;1.80;1.70;;;;;;;3.07;100.00;97283.03;4998742;28;20208;-70
2021/03/15 11:12:50;;;;;;;1.73;1.73;;;;;;;3.17;100.00;97278.63;5001637;28;20233;-69
2021/03/15 11:15:33;;;;;;;2.30;2.20;;;;;;;3.10;100.00;97281.94;5006707;28;20548;-69
2021/03/15 11:18:12;;;;;;;2.50;2.33;;;;;;;3.28;100.00;97282.13;4997851;28;20201;-68
2021/03/15 11:20:45;;;;;;;2.10;2.00;;;;;;;3.44;99.53;97282.41;5005218;28;20232;-70
2021/03/15 11:23:14;;;;;;;2.00;1.90;;;;;;;3.41;99.08;97287.06;4990905;28;20800;-70
2021/03/15 11:25:41;;;;;;;2.43;2.33;;;;;;;3.53;99.35;97287.78;4997688;28;20205;-69
2021/03/15 11:28:11;;;;;;;1.83;1.83;;;;;;;3.51;98.82;97279.22;5001792;28;20700;-69
2021/03/15 11:30:38;;;;;;;1.90;1.80;;;;;;;3.51;97.09;97287.94;5003661;28;20212;-69
2021/03/15 11:33:08;;;;;;;1.70;1.70;;;;;;;3.49;97.67;97287.25;4997454;28;20221;-69
2021/03/15 11:35:37;;;;;;;2.10;2.00;;;;;;;3.44;99.19;97281.59;5006568;28;20217;-70
2021/03/15 11:38:05;;;;;;;2.23;2.13;;;;;;;3.38;97.29;97288.19;4990881;28;20202;-70
2021/03/15 11:40:35;;;;;;;2.63;2.53;;;;;;;3.49;99.18;97282.00;4996129;28;20209;-70
2021/03/15 11:43:03;;;;;;;2.40;2.30;;;;;;;3.57;99.13;97286.53;5007101;28;21506;-69
2021/03/15 11:45:30;;;;;;;2.63;2.53;;;;;;;3.71;98.54;97278.28;4997576;28;20573;-69
2021/03/15 11:47:58;;;;;;;2.00;2.00;;;;;;;3.87;97.50;97279.50;5004594;28;20217;-68
2021/03/15 11:50:27;;;;;;;2.47;2.37;;;;;;;4.06;96.38;97278.66;4988230;28;20252;-70
2021/03/15 11:52:54;;;;;;;2.43;2.33;;;;;;;4.04;95.47;97278.81;4990096;28;20223;-70